createdAt,value
2022-08-01T00:00:50.218Z,4.10
2022-08-01T00:03:17.884Z,4.20
2022-08-01T00:05:46.424Z,4.28
2022-08-01T00:08:14.082Z,3.70
2022-08-01T00:10:41.731Z,5.10
2022-08-01T00:13:10.708Z,3.65
2022-08-01T00:15:38.641Z,4.43
2022-08-01T00:18:06.275Z,4.28
2022-08-01T00:20:34.166Z,4.32
2022-08-01T00:23:03.978Z,6.05
2022-08-01T00:25:33.561Z,4.18
2022-08-01T00:28:02.391Z,5.18
2022-08-01T00:30:33.560Z,4.60
2022-08-01T00:33:01.358Z,4.82
2022-08-01T00:35:29.178Z,4.60
2022-08-01T00:37:56.859Z,4.30
2022-08-01T00:40:24.696Z,4.53
2022-08-01T00:42:52.384Z,4.63
2022-08-01T00:45:20.236Z,6.28
2022-08-01T00:47:49.239Z,4.70
2022-08-01T00:50:24.846Z,5.18
2022-08-01T00:52:52.826Z,5.75
2022-08-01T00:55:20.686Z,5.43
2022-08-01T00:58:04.790Z,5.72
2022-08-01T01:00:51.971Z,5.50
2022-08-01T01:03:49.368Z,6.18
2022-08-01T01:06:15.529Z,5.25
2022-08-01T01:08:45.324Z,5.95
2022-08-01T01:11:15.670Z,5.93
2022-08-01T01:13:50.362Z,5.75
2022-08-01T01:16:20.757Z,6.25
2022-08-01T01:18:51.829Z,6.57
2022-08-01T01:21:37.299Z,6.22
2022-08-01T01:26:40.129Z,6.90
2022-08-01T01:29:12.174Z,7.05
2022-08-01T01:31:43.887Z,6.45
2022-08-01T01:34:13.273Z,7.45
2022-08-01T01:36:41.611Z,9.10
2022-08-01T01:39:09.462Z,7.70
2022-08-01T01:41:38.819Z,7.00
2022-08-01T01:44:07.006Z,6.85
2022-08-01T01:46:36.173Z,6.85
2022-08-01T01:49:04.579Z,7.72
2022-08-01T01:51:32.422Z,9.20
2022-08-01T01:54:01.563Z,7.53
2022-08-01T01:56:29.827Z,7.07
2022-08-01T01:58:58.591Z,7.07
2022-08-01T02:01:58.559Z,8.90
2022-08-01T02:04:17.535Z,7.63
2022-08-01T02:06:46.292Z,8.70
2022-08-01T02:09:14.823Z,8.20
2022-08-01T02:11:59.188Z,8.43
2022-08-01T02:14:31.379Z,7.68
2022-08-01T02:17:00.068Z,8.70
2022-08-01T02:19:29.256Z,8.20
2022-08-01T02:21:58.132Z,8.18
2022-08-01T02:24:30.601Z,7.72
2022-08-01T02:27:02.075Z,8.00
2022-08-01T02:29:35.073Z,7.97
2022-08-01T02:32:03.993Z,8.52
2022-08-01T02:34:34.648Z,8.05
2022-08-01T02:37:02.704Z,8.27
2022-08-01T02:39:32.561Z,8.23
2022-08-01T02:42:02.740Z,8.40
2022-08-01T02:44:32.379Z,8.85
2022-08-01T02:47:03.501Z,8.45
2022-08-01T02:49:34.415Z,9.48
2022-08-01T02:52:03.031Z,8.70
2022-08-01T02:54:31.700Z,9.45
2022-08-01T02:56:59.990Z,9.65
2022-08-01T02:59:28.752Z,9.63
2022-08-01T03:01:58.588Z,10.20
2022-08-01T03:04:28.554Z,10.32
2022-08-01T03:06:59.512Z,12.13
2022-08-01T03:09:28.073Z,10.05
2022-08-01T03:11:58.156Z,10.48
2022-08-01T03:14:26.507Z,11.80
2022-08-01T03:16:54.964Z,12.40
2022-08-01T03:19:24.943Z,11.30
2022-08-01T03:21:53.156Z,11.43
2022-08-01T03:24:24.761Z,12.95
2022-08-01T03:26:53.534Z,12.27
2022-08-01T03:29:23.796Z,12.63
2022-08-01T03:31:51.726Z,12.80
2022-08-01T03:34:21.566Z,13.75
2022-08-01T03:36:50.906Z,13.27
2022-08-01T03:39:19.575Z,13.40
2022-08-01T03:42:04.136Z,14.18
2022-08-01T03:44:34.070Z,14.85
2022-08-01T03:47:02.892Z,13.95
2022-08-01T03:49:32.152Z,16.80
2022-08-01T03:52:00.918Z,14.90
2022-08-01T03:54:31.007Z,12.85
2022-08-01T03:57:00.434Z,14.63
2022-08-01T03:59:28.372Z,15.30
2022-08-01T04:01:57.315Z,17.13
2022-08-01T04:04:25.449Z,14.10
2022-08-01T04:06:55.030Z,16.05
2022-08-01T04:09:22.892Z,17.35
2022-08-01T04:11:51.191Z,16.00
2022-08-01T04:14:20.182Z,15.98
2022-08-01T04:16:47.915Z,17.17
2022-08-01T04:19:16.486Z,15.20
2022-08-01T04:21:44.156Z,16.55
2022-08-01T04:24:14.713Z,17.60
2022-08-01T04:26:43.627Z,15.05
2022-08-01T04:29:11.630Z,16.33
2022-08-01T04:31:43.263Z,14.45
2022-08-01T04:34:13.537Z,15.35
2022-08-01T04:36:42.894Z,14.88
2022-08-01T04:39:10.935Z,14.73
2022-08-01T04:41:39.329Z,15.10
2022-08-01T04:44:07.854Z,15.20
2022-08-01T04:46:37.959Z,15.05
2022-08-01T04:49:08.484Z,12.98
2022-08-01T04:51:36.587Z,14.82
2022-08-01T04:54:05.001Z,13.50
2022-08-01T04:56:35.123Z,12.27
2022-08-01T04:59:20.488Z,13.63
2022-08-01T05:01:50.626Z,13.10
2022-08-01T05:04:19.796Z,12.10
2022-08-01T05:06:47.424Z,12.05
2022-08-01T05:09:15.110Z,10.45
2022-08-01T05:11:42.763Z,11.75
2022-08-01T05:14:10.431Z,11.52
2022-08-01T05:16:38.114Z,11.50
2022-08-01T05:19:05.742Z,10.75
2022-08-01T05:21:34.748Z,10.93
2022-08-01T05:24:02.360Z,11.35
2022-08-01T05:26:30.184Z,10.15
2022-08-01T05:28:59.602Z,10.50
2022-08-01T05:31:27.321Z,9.00
2022-08-01T05:33:55.039Z,10.05
2022-08-01T05:36:22.736Z,11.02
2022-08-01T05:38:51.797Z,10.07
2022-08-01T05:41:19.454Z,9.32
2022-08-01T05:43:47.190Z,10.05
2022-08-01T05:46:14.907Z,9.45
2022-08-01T05:48:42.599Z,10.88
2022-08-01T05:51:10.384Z,8.05
2022-08-01T05:53:38.047Z,9.48
2022-08-01T05:56:07.151Z,7.78
2022-08-01T05:58:34.980Z,7.60
2022-08-01T06:01:04.070Z,7.20
2022-08-01T06:03:34.195Z,6.70
2022-08-01T06:06:02.128Z,6.82
2022-08-01T06:08:30.087Z,5.88
2022-08-01T06:10:58.096Z,5.85
2022-08-01T06:13:27.089Z,5.97
2022-08-01T06:15:54.878Z,6.68
2022-08-01T06:18:22.666Z,5.95
2022-08-01T06:20:50.327Z,5.20
2022-08-01T06:23:31.466Z,5.53
2022-08-01T06:26:00.303Z,4.90
2022-08-01T06:28:30.026Z,5.30
2022-08-01T06:30:59.587Z,4.93
2022-08-01T06:33:27.314Z,5.32
2022-08-01T06:35:55.043Z,4.20
2022-08-01T06:38:22.706Z,4.93
2022-08-01T06:40:50.464Z,5.07
2022-08-01T06:43:19.701Z,4.72
2022-08-01T06:45:48.839Z,4.57
2022-08-01T06:48:16.649Z,5.18
2022-08-01T06:50:44.336Z,5.28
2022-08-01T06:53:11.992Z,4.30
2022-08-01T06:55:39.800Z,4.53
2022-08-01T06:58:07.461Z,3.72
2022-08-01T07:00:35.455Z,4.45
2022-08-01T07:03:04.898Z,4.40
2022-08-01T07:05:32.553Z,3.60
2022-08-01T07:08:00.443Z,3.63
2022-08-01T07:10:28.155Z,3.35
2022-08-01T07:12:55.824Z,3.42
2022-08-01T07:15:27.465Z,3.80
2022-08-01T07:17:55.236Z,2.70
2022-08-01T07:20:24.405Z,3.53
2022-08-01T07:22:52.495Z,3.63
2022-08-01T07:25:20.650Z,3.53
2022-08-01T07:27:48.390Z,3.50
2022-08-01T07:30:16.235Z,3.30
2022-08-01T07:32:43.933Z,3.17
2022-08-01T07:35:11.732Z,3.25
2022-08-01T07:37:48.768Z,3.45
2022-08-01T07:40:17.365Z,3.60
2022-08-01T07:42:46.105Z,4.45
2022-08-01T07:45:14.215Z,4.65
2022-08-01T07:47:41.879Z,3.92
2022-08-01T07:50:10.384Z,4.50
2022-08-01T07:52:38.012Z,4.25
2022-08-01T07:55:08.033Z,4.90
2022-08-01T07:57:35.680Z,6.60
2022-08-01T08:00:04.495Z,4.97
2022-08-01T08:02:32.127Z,5.10
2022-08-01T08:04:59.864Z,4.43
2022-08-01T08:07:27.625Z,4.47
2022-08-01T08:09:55.304Z,4.50
2022-08-01T08:12:28.672Z,4.78
2022-08-01T08:14:57.639Z,5.85
2022-08-01T08:17:25.327Z,6.55
2022-08-01T08:19:53.108Z,4.18
2022-08-01T08:22:20.730Z,4.63
2022-08-01T08:24:48.393Z,4.93
2022-08-01T08:27:16.491Z,4.63
2022-08-01T08:29:45.550Z,5.57
2022-08-01T08:32:13.368Z,5.68
2022-08-01T08:34:41.258Z,4.32
2022-08-01T08:37:09.480Z,3.90
2022-08-01T08:39:41.380Z,4.25
2022-08-01T08:42:10.379Z,4.00
2022-08-01T08:44:39.897Z,4.25
2022-08-01T08:47:19.374Z,3.85
2022-08-01T08:49:49.459Z,3.47
2022-08-01T08:52:17.825Z,3.33
2022-08-01T08:54:46.640Z,2.90
2022-08-01T08:57:15.429Z,2.90
2022-08-01T08:59:44.787Z,3.40
2022-08-01T09:02:14.565Z,2.80
2022-08-01T09:04:42.559Z,3.30
2022-08-01T09:07:12.236Z,3.60
2022-08-01T09:09:41.705Z,2.92
2022-08-01T09:12:10.120Z,3.40
2022-08-01T09:14:45.911Z,3.13
2022-08-01T09:17:15.149Z,2.92
2022-08-01T09:19:43.723Z,2.70
2022-08-01T09:22:11.906Z,3.17
2022-08-01T09:24:40.348Z,3.85
2022-08-01T09:27:18.078Z,4.15
2022-08-01T09:29:49.697Z,4.10
2022-08-01T09:32:34.329Z,4.45
2022-08-01T09:35:23.950Z,4.90
2022-08-01T09:37:51.675Z,5.10
2022-08-01T09:40:19.380Z,5.10
2022-08-01T09:42:52.867Z,4.97
2022-08-01T09:45:41.591Z,5.68
2022-08-01T09:48:14.173Z,5.65
2022-08-01T09:50:43.754Z,5.78
2022-08-01T09:53:11.783Z,5.40
2022-08-01T09:56:10.359Z,6.15
2022-08-01T09:58:57.931Z,7.00
2022-08-01T10:01:27.334Z,7.88
2022-08-01T10:04:11.419Z,7.35
2022-08-01T10:06:39.643Z,6.65
2022-08-01T10:09:08.839Z,7.30
2022-08-01T10:11:41.802Z,7.57
2022-08-01T10:14:09.715Z,6.88
2022-08-01T10:16:38.759Z,6.95
2022-08-01T10:19:11.363Z,7.22
2022-08-01T10:21:57.765Z,7.82
2022-08-01T10:24:28.041Z,7.80
2022-08-01T10:27:00.752Z,8.27
2022-08-01T10:29:46.229Z,7.97
2022-08-01T10:32:14.701Z,8.15
2022-08-01T10:34:45.243Z,8.52
2022-08-01T10:37:14.935Z,9.07
2022-08-01T10:39:43.592Z,9.18
2022-08-01T10:42:15.544Z,8.45
2022-08-01T10:44:43.733Z,7.07
2022-08-01T10:47:13.369Z,7.88
2022-08-01T10:49:45.222Z,8.32
2022-08-01T10:52:19.511Z,7.50
2022-08-01T10:54:52.145Z,8.93
2022-08-01T10:57:23.199Z,7.50
2022-08-01T10:59:59.451Z,7.30
2022-08-01T11:02:32.309Z,7.13
2022-08-01T11:05:04.335Z,7.53
2022-08-01T11:07:45.482Z,8.55
2022-08-01T11:10:18.694Z,8.45
2022-08-01T11:12:51.486Z,8.85
2022-08-01T11:15:31.139Z,8.68
2022-08-01T11:18:02.951Z,8.40
2022-08-01T11:20:34.275Z,8.50
2022-08-01T11:23:20.060Z,7.20
2022-08-01T11:26:10.904Z,7.68
2022-08-01T11:28:41.222Z,7.15
2022-08-01T11:31:28.167Z,7.07
2022-08-01T11:33:58.298Z,6.25
2022-08-01T11:36:56.753Z,5.85
2022-08-01T11:39:18.701Z,5.88
2022-08-01T11:41:49.796Z,5.72
2022-08-01T11:44:19.052Z,5.47
2022-08-01T11:46:53.807Z,5.00
2022-08-01T11:49:25.206Z,5.28
2022-08-01T11:52:00.616Z,5.38
2022-08-01T11:54:35.291Z,5.55
2022-08-01T11:57:06.471Z,5.60
2022-08-01T11:59:41.376Z,5.00
2022-08-01T12:02:18.095Z,5.03
2022-08-01T12:05:01.343Z,4.53
2022-08-01T12:07:30.742Z,4.80
2022-08-01T12:09:59.520Z,4.85
2022-08-01T12:12:29.399Z,4.47
2022-08-01T12:14:57.706Z,4.68
2022-08-01T12:17:35.422Z,4.95
2022-08-01T12:20:03.205Z,4.90
2022-08-01T12:22:31.014Z,4.40
2022-08-01T12:25:06.492Z,4.75
2022-08-01T12:27:35.956Z,3.95
2022-08-01T12:30:04.046Z,3.90
2022-08-01T12:32:35.981Z,3.85
2022-08-01T12:35:05.386Z,3.50
2022-08-01T12:37:33.303Z,3.53
2022-08-01T12:40:01.153Z,3.78
2022-08-01T12:42:28.891Z,3.65
2022-08-01T12:44:57.954Z,4.25
2022-08-01T12:47:26.286Z,3.53
2022-08-01T12:49:54.034Z,3.60
2022-08-01T12:52:26.730Z,3.67
2022-08-01T12:55:11.993Z,3.33
2022-08-01T12:57:40.885Z,3.50
2022-08-01T13:00:14.633Z,3.17
2022-08-01T13:02:42.726Z,3.20
2022-08-01T13:05:12.584Z,2.80
2022-08-01T13:07:45.975Z,3.15
2022-08-01T13:10:14.316Z,2.80
2022-08-01T13:12:42.337Z,2.85
2022-08-01T13:15:32.583Z,2.20
2022-08-01T13:18:00.889Z,2.28
2022-08-01T13:20:32.969Z,2.40
2022-08-01T13:23:18.025Z,3.63
2022-08-01T13:26:05.226Z,2.92
2022-08-01T13:28:33.764Z,3.05
2022-08-01T13:31:04.691Z,2.45
2022-08-01T13:33:43.011Z,2.35
2022-08-01T13:36:10.837Z,2.13
2022-08-01T13:38:56.819Z,2.55
2022-08-01T13:41:24.537Z,2.38
2022-08-01T13:43:58.459Z,2.13
2022-08-01T13:46:29.559Z,1.92
2022-08-01T13:48:57.449Z,1.73
2022-08-01T13:51:25.222Z,1.83
2022-08-01T13:53:53.017Z,1.67
2022-08-01T13:56:21.076Z,1.70
2022-08-01T13:58:48.803Z,1.70
2022-08-01T14:01:16.529Z,1.65
2022-08-01T14:03:45.749Z,3.72
2022-08-01T14:06:15.104Z,1.50
2022-08-01T14:08:45.951Z,1.40
2022-08-01T14:11:13.845Z,1.40
2022-08-01T14:13:46.676Z,1.42
2022-08-01T14:16:14.754Z,1.63
2022-08-01T14:18:44.226Z,1.65
2022-08-01T14:21:13.439Z,1.73
2022-08-01T14:23:41.269Z,1.60
2022-08-01T14:26:12.351Z,2.20
2022-08-01T14:28:40.457Z,2.03
2022-08-01T14:31:08.633Z,2.00
2022-08-01T14:33:36.347Z,2.00
2022-08-01T14:36:25.951Z,1.95
2022-08-01T14:38:53.294Z,1.90
2022-08-01T14:41:20.926Z,1.90
2022-08-01T14:43:48.581Z,1.95
2022-08-01T14:46:17.079Z,1.55
2022-08-01T14:48:44.707Z,1.73
2022-08-01T14:51:12.498Z,1.58
2022-08-01T14:53:42.943Z,1.55
2022-08-01T14:56:16.161Z,1.67
2022-08-01T14:58:43.772Z,1.67
2022-08-01T15:01:11.502Z,1.60
2022-08-01T15:03:39.267Z,1.67
2022-08-01T15:06:07.504Z,1.95
2022-08-01T15:08:35.927Z,1.63
2022-08-01T15:11:03.706Z,1.60
2022-08-01T15:13:32.731Z,2.28
2022-08-01T15:16:00.635Z,1.38
2022-08-01T15:18:28.590Z,1.30
2022-08-01T15:20:56.272Z,1.60
2022-08-01T15:23:23.915Z,1.63
2022-08-01T15:25:54.624Z,1.70
2022-08-01T15:28:23.423Z,1.55
2022-08-01T15:30:52.510Z,1.67
2022-08-01T15:33:22.445Z,1.73
2022-08-01T15:35:50.056Z,1.38
2022-08-01T15:38:22.467Z,1.30
2022-08-01T15:40:50.151Z,2.22
2022-08-01T15:43:18.337Z,1.80
2022-08-01T15:45:48.146Z,1.85
2022-08-01T15:48:17.653Z,2.40
2022-08-01T15:50:45.336Z,1.70
2022-08-01T15:53:13.167Z,2.47
2022-08-01T15:55:41.044Z,2.25
2022-08-01T15:58:11.561Z,2.00
2022-08-01T16:00:40.051Z,2.20
2022-08-01T16:03:08.000Z,2.38
2022-08-01T16:05:42.878Z,2.08
2022-08-01T16:08:12.118Z,2.80
2022-08-01T16:10:39.897Z,2.17
2022-08-01T16:13:08.161Z,1.75
2022-08-01T16:15:37.496Z,2.17
2022-08-01T16:18:06.490Z,1.98
2022-08-01T16:20:34.375Z,2.38
2022-08-01T16:23:04.077Z,2.47
2022-08-01T16:25:31.894Z,1.88
2022-08-01T16:27:59.714Z,2.05
2022-08-01T16:30:27.683Z,1.77
2022-08-01T16:32:59.146Z,2.55
2022-08-01T16:35:35.884Z,2.28
2022-08-01T16:38:11.112Z,2.00
2022-08-01T16:40:47.583Z,1.83
2022-08-01T16:43:15.694Z,1.90
2022-08-01T16:45:43.805Z,2.70
2022-08-01T16:48:12.250Z,1.90
2022-08-01T16:50:40.487Z,1.58
2022-08-01T16:53:09.586Z,1.63
2022-08-01T16:55:49.353Z,4.75
2022-08-01T16:58:18.475Z,2.00
2022-08-01T17:00:56.284Z,1.88
2022-08-01T17:03:51.807Z,2.70
2022-08-01T17:06:12.619Z,1.73
2022-08-01T17:08:46.476Z,2.03
2022-08-01T17:11:14.701Z,2.08
2022-08-01T17:13:42.488Z,1.73
2022-08-01T17:16:10.536Z,1.75
2022-08-01T17:18:38.275Z,1.75
2022-08-01T17:21:06.040Z,1.73
2022-08-01T17:23:35.035Z,1.40
2022-08-01T17:26:04.113Z,1.70
2022-08-01T17:28:32.803Z,1.65
2022-08-01T17:31:00.581Z,1.75
2022-08-01T17:33:45.386Z,2.05
2022-08-01T17:36:13.950Z,2.15
2022-08-01T17:38:41.614Z,1.67
2022-08-01T17:41:10.708Z,1.85
2022-08-01T17:43:38.445Z,2.05
2022-08-01T17:46:06.111Z,1.75
2022-08-01T17:48:33.879Z,1.85
2022-08-01T17:51:01.523Z,1.52
2022-08-01T17:53:29.234Z,1.48
2022-08-01T17:55:58.805Z,1.92
2022-08-01T17:58:50.040Z,1.67
2022-08-01T18:01:17.230Z,1.83
2022-08-01T18:03:45.315Z,1.85
2022-08-01T18:06:14.446Z,1.80
2022-08-01T18:08:56.283Z,1.63
2022-08-01T18:11:27.797Z,1.63
2022-08-01T18:13:59.508Z,1.55
2022-08-01T18:16:30.966Z,1.23
2022-08-01T18:18:58.739Z,1.30
2022-08-01T18:21:26.359Z,1.85
2022-08-01T18:23:54.136Z,1.45
2022-08-01T18:26:22.121Z,1.83
2022-08-01T18:28:49.917Z,1.60
2022-08-01T18:31:20.531Z,1.52
2022-08-01T18:33:48.828Z,1.65
2022-08-01T18:36:31.349Z,1.98
2022-08-01T18:39:03.611Z,2.25
2022-08-01T18:41:32.717Z,1.80
2022-08-01T18:44:03.886Z,1.88
2022-08-01T18:46:39.205Z,1.42
2022-08-01T18:49:07.934Z,1.48
2022-08-01T18:51:38.875Z,1.55
2022-08-01T18:54:10.920Z,1.60
2022-08-01T18:56:38.935Z,1.25
2022-08-01T18:59:06.637Z,1.33
2022-08-01T19:01:34.380Z,2.33
2022-08-01T19:04:03.439Z,2.38
2022-08-01T19:06:31.102Z,1.60
2022-08-01T19:09:02.573Z,1.27
2022-08-01T19:11:30.893Z,1.88
2022-08-01T19:13:58.925Z,1.70
2022-08-01T19:16:27.617Z,2.10
2022-08-01T19:18:55.337Z,2.30
2022-08-01T19:21:24.854Z,2.80
2022-08-01T19:24:10.111Z,2.03
2022-08-01T19:26:38.036Z,3.30
2022-08-01T19:29:10.244Z,3.67
2022-08-01T19:31:43.304Z,3.08
2022-08-01T19:34:15.478Z,3.22
2022-08-01T19:36:45.124Z,2.33
2022-08-01T19:39:15.253Z,2.35
2022-08-01T19:41:45.340Z,2.00
2022-08-01T19:44:13.620Z,2.17
2022-08-01T19:46:41.767Z,1.50
2022-08-01T19:49:09.432Z,2.25
2022-08-01T19:51:39.840Z,2.80
2022-08-01T19:54:11.319Z,2.20
2022-08-01T19:56:40.594Z,1.45
2022-08-01T19:59:09.327Z,1.42
2022-08-01T20:01:37.832Z,1.73
2022-08-01T20:04:05.720Z,1.40
2022-08-01T20:06:34.873Z,1.48
2022-08-01T20:09:03.470Z,1.40
2022-08-01T20:11:32.615Z,1.55
2022-08-01T20:14:01.045Z,1.50
2022-08-01T20:16:29.514Z,1.50
2022-08-01T20:18:57.418Z,1.30
2022-08-01T20:21:26.195Z,1.33
2022-08-01T20:24:02.531Z,1.75
2022-08-01T20:26:32.780Z,1.40
2022-08-01T20:29:01.103Z,1.27
2022-08-01T20:31:38.470Z,1.50
2022-08-01T20:36:57.052Z,1.23
2022-08-01T20:39:31.122Z,1.45
2022-08-01T20:42:00.695Z,1.58
2022-08-01T20:44:31.568Z,1.42
2022-08-01T20:47:01.170Z,1.40
2022-08-01T20:49:29.599Z,1.35
2022-08-01T20:51:57.378Z,1.80
2022-08-01T20:54:26.743Z,2.20
2022-08-01T20:56:58.190Z,1.77
2022-08-01T20:59:39.545Z,1.60
2022-08-01T21:02:36.211Z,1.40
2022-08-01T21:05:05.490Z,1.48
2022-08-01T21:07:34.466Z,1.33
2022-08-01T21:10:05.396Z,1.67
2022-08-01T21:12:40.791Z,1.48
2022-08-01T21:15:15.251Z,1.83
2022-08-01T21:17:45.701Z,1.23
2022-08-01T21:20:14.357Z,1.50
2022-08-01T21:22:47.385Z,1.40
2022-08-01T21:25:18.901Z,1.58
2022-08-01T21:27:47.599Z,1.50
2022-08-01T21:30:16.671Z,1.40
2022-08-01T21:32:44.340Z,1.27
2022-08-01T21:35:16.396Z,1.52
2022-08-01T21:37:52.008Z,1.58
2022-08-01T21:40:21.131Z,2.72
2022-08-01T21:42:49.607Z,1.20
2022-08-01T21:45:19.791Z,1.60
2022-08-01T21:47:49.691Z,1.60
2022-08-01T21:50:17.671Z,1.45
2022-08-01T21:52:46.321Z,1.48
2022-08-01T21:55:21.734Z,1.60
2022-08-01T21:58:08.188Z,2.10
2022-08-01T22:00:38.474Z,2.22
2022-08-01T22:03:11.126Z,1.80
2022-08-01T22:05:50.561Z,2.08
2022-08-01T22:08:22.587Z,1.58
2022-08-01T22:10:55.432Z,1.58
2022-08-01T22:13:23.114Z,1.58
2022-08-01T22:15:52.594Z,1.50
2022-08-01T22:18:20.420Z,2.33
2022-08-01T22:20:48.195Z,2.35
2022-08-01T22:23:15.952Z,2.00
2022-08-01T22:25:44.160Z,2.28
2022-08-01T22:28:13.205Z,2.78
2022-08-01T22:30:41.912Z,2.72
2022-08-01T22:33:16.067Z,2.90
2022-08-01T22:35:45.011Z,3.88
2022-08-01T22:38:12.757Z,2.97
2022-08-01T22:40:46.424Z,3.13
2022-08-01T22:43:18.810Z,2.72
2022-08-01T22:45:48.864Z,3.83
2022-08-01T22:48:19.745Z,2.42
2022-08-01T22:50:49.937Z,2.03
2022-08-01T22:53:20.799Z,2.25
2022-08-01T22:55:59.049Z,2.78
2022-08-01T22:58:30.615Z,2.40
2022-08-01T23:01:01.257Z,2.40
2022-08-01T23:03:30.860Z,2.33
2022-08-01T23:06:03.111Z,2.20
2022-08-01T23:08:32.006Z,16.48
2022-08-01T23:11:00.593Z,2.38
2022-08-01T23:13:29.209Z,2.78
2022-08-01T23:15:58.005Z,2.83
2022-08-01T23:18:26.076Z,2.40
2022-08-01T23:20:58.011Z,2.53
2022-08-01T23:23:30.774Z,2.05
2022-08-01T23:25:59.868Z,2.08
2022-08-01T23:28:28.438Z,2.38
2022-08-01T23:30:56.406Z,2.40
2022-08-01T23:33:24.249Z,1.92
2022-08-01T23:35:52.006Z,1.63
2022-08-01T23:38:21.014Z,1.90
2022-08-01T23:40:50.109Z,1.77
2022-08-01T23:43:18.119Z,3.25
2022-08-01T23:46:04.214Z,2.25
2022-08-01T23:48:32.976Z,1.85
2022-08-01T23:51:00.763Z,1.92
2022-08-01T23:53:31.500Z,2.30
2022-08-01T23:56:02.677Z,1.80
2022-08-01T23:58:30.702Z,1.90
